sensor_id;sensor_type;location;lat;lon;timestamp;P1;durP1;ratioP1;P2;durP2;ratioP2
52734;SDS011;38631;47.572;10.704;2023-02-24T00:01:31;10.88;;;5.47;;
52734;SDS011;38631;47.572;10.704;2023-02-24T00:04:02;10.52;;;5.07;;
52734;SDS011;38631;47.572;10.704;2023-02-24T00:06:32;8.48;;;4.65;;
52734;SDS011;38631;47.572;10.704;2023-02-24T00:09:09;9.38;;;4.22;;
52734;SDS011;38631;47.572;10.704;2023-02-24T00:11:44;10.13;;;4.57;;
52734;SDS011;38631;47.572;10.704;2023-02-24T00:14:14;11.57;;;5.07;;
52734;SDS011;38631;47.572;10.704;2023-02-24T00:16:40;11.13;;;4.55;;
52734;SDS011;38631;47.572;10.704;2023-02-24T00:19:09;10.48;;;4.40;;
52734;SDS011;38631;47.572;10.704;2023-02-24T00:21:40;11.30;;;4.53;;
52734;SDS011;38631;47.572;10.704;2023-02-24T00:24:06;10.13;;;4.18;;
52734;SDS011;38631;47.572;10.704;2023-02-24T00:26:32;13.45;;;4.65;;
52734;SDS011;38631;47.572;10.704;2023-02-24T00:28:58;11.38;;;5.28;;
52734;SDS011;38631;47.572;10.704;2023-02-24T00:31:24;12.52;;;4.82;;
52734;SDS011;38631;47.572;10.704;2023-02-24T00:33:54;10.88;;;5.10;;
52734;SDS011;38631;47.572;10.704;2023-02-24T00:36:21;11.25;;;5.50;;
52734;SDS011;38631;47.572;10.704;2023-02-24T00:38:48;10.35;;;5.25;;
52734;SDS011;38631;47.572;10.704;2023-02-24T00:41:22;9.23;;;5.10;;
52734;SDS011;38631;47.572;10.704;2023-02-24T00:43:53;11.27;;;5.07;;
52734;SDS011;38631;47.572;10.704;2023-02-24T00:46:20;11.90;;;5.45;;
52734;SDS011;38631;47.572;10.704;2023-02-24T00:48:47;10.60;;;4.82;;
52734;SDS011;38631;47.572;10.704;2023-02-24T00:51:17;9.55;;;4.35;;
52734;SDS011;38631;47.572;10.704;2023-02-24T00:53:48;7.80;;;4.25;;
52734;SDS011;38631;47.572;10.704;2023-02-24T00:56:21;9.65;;;4.40;;
52734;SDS011;38631;47.572;10.704;2023-02-24T00:58:51;9.15;;;4.38;;
52734;SDS011;38631;47.572;10.704;2023-02-24T01:01:17;8.30;;;4.32;;
52734;SDS011;38631;47.572;10.704;2023-02-24T01:03:45;7.90;;;4.18;;
52734;SDS011;38631;47.572;10.704;2023-02-24T01:06:13;6.97;;;4.22;;
52734;SDS011;38631;47.572;10.704;2023-02-24T01:08:39;14.77;;;5.50;;
52734;SDS011;38631;47.572;10.704;2023-02-24T01:11:12;11.32;;;5.68;;
52734;SDS011;38631;47.572;10.704;2023-02-24T01:13:57;14.23;;;6.03;;
52734;SDS011;38631;47.572;10.704;2023-02-24T01:16:23;14.98;;;6.47;;
52734;SDS011;38631;47.572;10.704;2023-02-24T01:18:48;7.53;;;4.72;;
52734;SDS011;38631;47.572;10.704;2023-02-24T01:21:14;13.95;;;6.75;;
52734;SDS011;38631;47.572;10.704;2023-02-24T01:23:41;9.13;;;5.50;;
52734;SDS011;38631;47.572;10.704;2023-02-24T01:26:08;10.27;;;4.68;;
52734;SDS011;38631;47.572;10.704;2023-02-24T01:28:33;8.07;;;4.70;;
52734;SDS011;38631;47.572;10.704;2023-02-24T01:31:00;12.05;;;4.20;;
52734;SDS011;38631;47.572;10.704;2023-02-24T01:33:27;14.32;;;4.38;;
52734;SDS011;38631;47.572;10.704;2023-02-24T01:35:54;7.38;;;3.70;;
52734;SDS011;38631;47.572;10.704;2023-02-24T01:38:19;7.05;;;4.28;;
52734;SDS011;38631;47.572;10.704;2023-02-24T01:40:55;6.57;;;3.53;;
52734;SDS011;38631;47.572;10.704;2023-02-24T01:43:22;13.45;;;4.03;;
52734;SDS011;38631;47.572;10.704;2023-02-24T01:45:47;11.85;;;4.03;;
52734;SDS011;38631;47.572;10.704;2023-02-24T01:48:15;10.60;;;3.65;;
52734;SDS011;38631;47.572;10.704;2023-02-24T01:50:41;9.25;;;4.20;;
52734;SDS011;38631;47.572;10.704;2023-02-24T01:53:08;7.13;;;4.00;;
52734;SDS011;38631;47.572;10.704;2023-02-24T01:55:41;7.15;;;3.67;;
52734;SDS011;38631;47.572;10.704;2023-02-24T01:58:24;9.02;;;3.88;;
52734;SDS011;38631;47.572;10.704;2023-02-24T02:00:52;9.02;;;4.10;;
52734;SDS011;38631;47.572;10.704;2023-02-24T02:03:23;8.25;;;3.58;;
52734;SDS011;38631;47.572;10.704;2023-02-24T02:05:59;7.53;;;4.03;;
52734;SDS011;38631;47.572;10.704;2023-02-24T02:08:26;9.70;;;4.60;;
52734;SDS011;38631;47.572;10.704;2023-02-24T02:10:52;11.32;;;4.95;;
52734;SDS011;38631;47.572;10.704;2023-02-24T02:13:22;9.38;;;3.72;;
52734;SDS011;38631;47.572;10.704;2023-02-24T02:15:55;7.45;;;4.20;;
52734;SDS011;38631;47.572;10.704;2023-02-24T02:27:16;8.45;;;3.88;;
52734;SDS011;38631;47.572;10.704;2023-02-24T02:29:55;6.82;;;3.80;;
52734;SDS011;38631;47.572;10.704;2023-02-24T02:38:04;9.77;;;3.45;;
52734;SDS011;38631;47.572;10.704;2023-02-24T02:41:00;6.55;;;3.85;;
52734;SDS011;38631;47.572;10.704;2023-02-24T02:43:47;8.25;;;3.50;;
52734;SDS011;38631;47.572;10.704;2023-02-24T02:46:25;9.90;;;4.00;;
52734;SDS011;38631;47.572;10.704;2023-02-24T02:49:08;6.93;;;3.17;;
52734;SDS011;38631;47.572;10.704;2023-02-24T02:51:43;6.90;;;3.05;;
52734;SDS011;38631;47.572;10.704;2023-02-24T02:54:17;6.70;;;3.42;;
52734;SDS011;38631;47.572;10.704;2023-02-24T02:57:05;5.85;;;3.47;;
52734;SDS011;38631;47.572;10.704;2023-02-24T02:59:36;7.38;;;3.38;;
52734;SDS011;38631;47.572;10.704;2023-02-24T03:02:04;11.68;;;3.40;;
52734;SDS011;38631;47.572;10.704;2023-02-24T03:04:40;7.78;;;3.42;;
52734;SDS011;38631;47.572;10.704;2023-02-24T03:07:07;9.60;;;3.65;;
52734;SDS011;38631;47.572;10.704;2023-02-24T03:09:37;7.78;;;3.55;;
52734;SDS011;38631;47.572;10.704;2023-02-24T03:12:08;5.25;;;3.22;;
52734;SDS011;38631;47.572;10.704;2023-02-24T03:14:37;5.97;;;3.50;;
52734;SDS011;38631;47.572;10.704;2023-02-24T03:17:06;6.67;;;3.63;;
52734;SDS011;38631;47.572;10.704;2023-02-24T03:19:37;10.18;;;4.07;;
52734;SDS011;38631;47.572;10.704;2023-02-24T03:22:06;8.15;;;3.50;;
52734;SDS011;38631;47.572;10.704;2023-02-24T03:24:41;10.90;;;3.65;;
52734;SDS011;38631;47.572;10.704;2023-02-24T03:27:27;11.73;;;3.80;;
52734;SDS011;38631;47.572;10.704;2023-02-24T03:30:18;9.38;;;3.80;;
52734;SDS011;38631;47.572;10.704;2023-02-24T03:33:03;6.53;;;3.30;;
52734;SDS011;38631;47.572;10.704;2023-02-24T03:35:47;7.40;;;3.42;;
52734;SDS011;38631;47.572;10.704;2023-02-24T03:38:15;6.28;;;3.17;;
52734;SDS011;38631;47.572;10.704;2023-02-24T03:40:41;10.93;;;4.07;;
52734;SDS011;38631;47.572;10.704;2023-02-24T03:43:15;6.28;;;3.65;;
52734;SDS011;38631;47.572;10.704;2023-02-24T03:45:45;7.65;;;3.95;;
52734;SDS011;38631;47.572;10.704;2023-02-24T03:48:11;6.57;;;3.28;;
52734;SDS011;38631;47.572;10.704;2023-02-24T03:50:38;8.73;;;3.83;;
52734;SDS011;38631;47.572;10.704;2023-02-24T03:53:08;7.35;;;3.40;;
52734;SDS011;38631;47.572;10.704;2023-02-24T03:55:42;7.65;;;3.50;;
52734;SDS011;38631;47.572;10.704;2023-02-24T03:58:17;7.47;;;3.30;;
52734;SDS011;38631;47.572;10.704;2023-02-24T04:00:57;6.20;;;3.03;;
52734;SDS011;38631;47.572;10.704;2023-02-24T04:04:16;6.22;;;3.08;;
52734;SDS011;38631;47.572;10.704;2023-02-24T04:08:55;6.50;;;2.88;;
52734;SDS011;38631;47.572;10.704;2023-02-24T04:11:43;11.07;;;4.32;;
52734;SDS011;38631;47.572;10.704;2023-02-24T04:14:30;18.15;;;8.02;;
52734;SDS011;38631;47.572;10.704;2023-02-24T04:19:59;14.23;;;4.88;;
52734;SDS011;38631;47.572;10.704;2023-02-24T04:22:34;9.23;;;3.47;;
52734;SDS011;38631;47.572;10.704;2023-02-24T04:25:00;6.50;;;4.15;;
52734;SDS011;38631;47.572;10.704;2023-02-24T04:27:29;6.00;;;3.30;;
52734;SDS011;38631;47.572;10.704;2023-02-24T04:29:55;7.63;;;3.35;;
52734;SDS011;38631;47.572;10.704;2023-02-24T04:32:25;6.70;;;3.45;;
52734;SDS011;38631;47.572;10.704;2023-02-24T04:34:59;6.65;;;3.22;;
52734;SDS011;38631;47.572;10.704;2023-02-24T04:37:30;8.10;;;3.42;;
52734;SDS011;38631;47.572;10.704;2023-02-24T04:39:58;8.57;;;3.88;;
52734;SDS011;38631;47.572;10.704;2023-02-24T04:42:24;6.97;;;3.25;;
52734;SDS011;38631;47.572;10.704;2023-02-24T04:44:49;9.27;;;3.20;;
52734;SDS011;38631;47.572;10.704;2023-02-24T04:47:14;9.68;;;3.50;;
52734;SDS011;38631;47.572;10.704;2023-02-24T04:49:40;8.15;;;4.15;;
52734;SDS011;38631;47.572;10.704;2023-02-24T04:52:06;6.10;;;3.05;;
52734;SDS011;38631;47.572;10.704;2023-02-24T04:54:35;6.75;;;2.92;;
52734;SDS011;38631;47.572;10.704;2023-02-24T04:57:01;7.18;;;2.92;;
52734;SDS011;38631;47.572;10.704;2023-02-24T04:59:28;5.75;;;2.70;;
52734;SDS011;38631;47.572;10.704;2023-02-24T05:01:54;7.38;;;3.70;;
52734;SDS011;38631;47.572;10.704;2023-02-24T05:04:19;8.40;;;3.63;;
52734;SDS011;38631;47.572;10.704;2023-02-24T05:06:44;7.07;;;3.20;;
52734;SDS011;38631;47.572;10.704;2023-02-24T05:09:11;10.38;;;3.88;;
52734;SDS011;38631;47.572;10.704;2023-02-24T05:11:49;4.50;;;2.72;;
52734;SDS011;38631;47.572;10.704;2023-02-24T05:14:16;8.15;;;3.33;;
52734;SDS011;38631;47.572;10.704;2023-02-24T05:16:45;6.33;;;3.87;;
52734;SDS011;38631;47.572;10.704;2023-02-24T05:19:12;8.88;;;2.90;;
52734;SDS011;38631;47.572;10.704;2023-02-24T05:21:58;9.88;;;3.72;;
52734;SDS011;38631;47.572;10.704;2023-02-24T05:24:24;5.80;;;3.30;;
52734;SDS011;38631;47.572;10.704;2023-02-24T05:26:53;6.50;;;3.53;;
52734;SDS011;38631;47.572;10.704;2023-02-24T05:29:22;8.43;;;3.17;;
52734;SDS011;38631;47.572;10.704;2023-02-24T05:31:52;9.50;;;4.10;;
52734;SDS011;38631;47.572;10.704;2023-02-24T05:34:18;6.20;;;2.97;;
52734;SDS011;38631;47.572;10.704;2023-02-24T05:36:45;8.35;;;3.88;;
52734;SDS011;38631;47.572;10.704;2023-02-24T05:39:11;10.63;;;3.85;;
52734;SDS011;38631;47.572;10.704;2023-02-24T05:41:43;6.68;;;3.22;;
52734;SDS011;38631;47.572;10.704;2023-02-24T05:44:12;6.25;;;3.50;;
52734;SDS011;38631;47.572;10.704;2023-02-24T05:46:41;10.57;;;3.55;;
52734;SDS011;38631;47.572;10.704;2023-02-24T05:49:15;7.20;;;3.30;;
52734;SDS011;38631;47.572;10.704;2023-02-24T05:51:47;7.82;;;3.35;;
52734;SDS011;38631;47.572;10.704;2023-02-24T05:54:27;7.50;;;3.15;;
52734;SDS011;38631;47.572;10.704;2023-02-24T05:56:56;4.55;;;3.00;;
52734;SDS011;38631;47.572;10.704;2023-02-24T05:59:26;8.88;;;4.10;;
52734;SDS011;38631;47.572;10.704;2023-02-24T06:01:56;7.07;;;3.90;;
52734;SDS011;38631;47.572;10.704;2023-02-24T06:04:30;8.18;;;3.10;;
52734;SDS011;38631;47.572;10.704;2023-02-24T06:07:13;8.23;;;3.97;;
52734;SDS011;38631;47.572;10.704;2023-02-24T06:09:49;5.70;;;3.13;;
52734;SDS011;38631;47.572;10.704;2023-02-24T06:12:24;4.93;;;3.08;;
52734;SDS011;38631;47.572;10.704;2023-02-24T06:14:49;10.07;;;5.45;;
52734;SDS011;38631;47.572;10.704;2023-02-24T06:17:17;13.68;;;7.18;;
52734;SDS011;38631;47.572;10.704;2023-02-24T06:19:43;11.93;;;5.70;;
52734;SDS011;38631;47.572;10.704;2023-02-24T06:22:13;10.75;;;5.97;;
52734;SDS011;38631;47.572;10.704;2023-02-24T06:24:43;10.90;;;3.53;;
52734;SDS011;38631;47.572;10.704;2023-02-24T06:27:10;9.35;;;3.78;;
52734;SDS011;38631;47.572;10.704;2023-02-24T06:29:41;10.63;;;4.40;;
52734;SDS011;38631;47.572;10.704;2023-02-24T06:32:07;13.38;;;7.88;;
52734;SDS011;38631;47.572;10.704;2023-02-24T06:34:33;13.60;;;7.55;;
52734;SDS011;38631;47.572;10.704;2023-02-24T06:36:59;9.40;;;5.28;;
52734;SDS011;38631;47.572;10.704;2023-02-24T06:39:25;12.70;;;6.30;;
52734;SDS011;38631;47.572;10.704;2023-02-24T06:41:50;10.77;;;5.47;;
52734;SDS011;38631;47.572;10.704;2023-02-24T06:44:16;8.95;;;4.55;;
52734;SDS011;38631;47.572;10.704;2023-02-24T06:46:43;12.35;;;5.47;;
52734;SDS011;38631;47.572;10.704;2023-02-24T06:49:10;9.85;;;6.32;;
52734;SDS011;38631;47.572;10.704;2023-02-24T06:51:36;14.43;;;7.32;;
52734;SDS011;38631;47.572;10.704;2023-02-24T06:54:03;11.18;;;6.10;;
52734;SDS011;38631;47.572;10.704;2023-02-24T06:56:30;12.10;;;7.18;;
52734;SDS011;38631;47.572;10.704;2023-02-24T06:59:02;10.77;;;5.65;;
52734;SDS011;38631;47.572;10.704;2023-02-24T07:01:29;9.93;;;5.72;;
52734;SDS011;38631;47.572;10.704;2023-02-24T07:03:55;11.65;;;5.72;;
52734;SDS011;38631;47.572;10.704;2023-02-24T07:06:49;10.57;;;5.38;;
52734;SDS011;38631;47.572;10.704;2023-02-24T07:09:18;11.45;;;5.63;;
52734;SDS011;38631;47.572;10.704;2023-02-24T07:11:46;13.20;;;6.57;;
52734;SDS011;38631;47.572;10.704;2023-02-24T07:14:16;10.93;;;6.18;;
52734;SDS011;38631;47.572;10.704;2023-02-24T07:19:16;12.27;;;7.15;;
52734;SDS011;38631;47.572;10.704;2023-02-24T07:21:42;10.45;;;5.53;;
52734;SDS011;38631;47.572;10.704;2023-02-24T07:24:14;13.52;;;7.10;;
52734;SDS011;38631;47.572;10.704;2023-02-24T07:26:52;27.10;;;14.80;;
52734;SDS011;38631;47.572;10.704;2023-02-24T07:29:23;22.98;;;10.70;;
52734;SDS011;38631;47.572;10.704;2023-02-24T07:31:50;14.68;;;8.43;;
52734;SDS011;38631;47.572;10.704;2023-02-24T07:34:19;11.55;;;6.25;;
52734;SDS011;38631;47.572;10.704;2023-02-24T07:36:48;10.00;;;4.28;;
52734;SDS011;38631;47.572;10.704;2023-02-24T07:39:15;7.75;;;3.95;;
52734;SDS011;38631;47.572;10.704;2023-02-24T07:41:41;7.13;;;3.92;;
52734;SDS011;38631;47.572;10.704;2023-02-24T07:44:10;11.63;;;3.92;;
52734;SDS011;38631;47.572;10.704;2023-02-24T07:46:37;14.45;;;6.78;;
52734;SDS011;38631;47.572;10.704;2023-02-24T07:49:04;11.30;;;5.55;;
52734;SDS011;38631;47.572;10.704;2023-02-24T07:51:33;11.77;;;5.43;;
52734;SDS011;38631;47.572;10.704;2023-02-24T07:53:59;14.32;;;4.40;;
52734;SDS011;38631;47.572;10.704;2023-02-24T07:56:27;12.93;;;5.47;;
52734;SDS011;38631;47.572;10.704;2023-02-24T07:58:58;7.47;;;4.38;;
52734;SDS011;38631;47.572;10.704;2023-02-24T08:01:26;9.20;;;4.75;;
52734;SDS011;38631;47.572;10.704;2023-02-24T08:04:02;11.20;;;3.47;;
52734;SDS011;38631;47.572;10.704;2023-02-24T08:06:33;8.65;;;3.83;;
52734;SDS011;38631;47.572;10.704;2023-02-24T08:11:43;7.63;;;3.33;;
52734;SDS011;38631;47.572;10.704;2023-02-24T08:14:20;8.65;;;3.67;;
52734;SDS011;38631;47.572;10.704;2023-02-24T08:16:59;16.27;;;4.10;;
52734;SDS011;38631;47.572;10.704;2023-02-24T08:19:30;9.02;;;4.40;;
52734;SDS011;38631;47.572;10.704;2023-02-24T08:22:04;9.88;;;3.67;;
52734;SDS011;38631;47.572;10.704;2023-02-24T08:24:59;10.55;;;3.45;;
52734;SDS011;38631;47.572;10.704;2023-02-24T08:27:25;10.00;;;2.90;;
52734;SDS011;38631;47.572;10.704;2023-02-24T08:29:54;6.25;;;2.90;;
52734;SDS011;38631;47.572;10.704;2023-02-24T08:32:24;7.68;;;2.92;;
52734;SDS011;38631;47.572;10.704;2023-02-24T08:35:23;9.82;;;3.00;;
52734;SDS011;38631;47.572;10.704;2023-02-24T08:37:52;7.00;;;3.13;;
52734;SDS011;38631;47.572;10.704;2023-02-24T08:43:18;11.55;;;4.25;;
52734;SDS011;38631;47.572;10.704;2023-02-24T08:45:50;9.93;;;4.70;;
52734;SDS011;38631;47.572;10.704;2023-02-24T08:48:24;8.07;;;4.03;;
52734;SDS011;38631;47.572;10.704;2023-02-24T08:51:01;8.57;;;4.03;;
52734;SDS011;38631;47.572;10.704;2023-02-24T08:53:48;7.85;;;3.95;;
52734;SDS011;38631;47.572;10.704;2023-02-24T08:56:17;12.70;;;3.92;;
52734;SDS011;38631;47.572;10.704;2023-02-24T08:58:47;8.52;;;3.38;;
52734;SDS011;38631;47.572;10.704;2023-02-24T09:01:20;7.93;;;3.67;;
52734;SDS011;38631;47.572;10.704;2023-02-24T09:03:58;8.63;;;3.72;;
52734;SDS011;38631;47.572;10.704;2023-02-24T09:06:47;12.00;;;3.78;;
52734;SDS011;38631;47.572;10.704;2023-02-24T09:09:13;10.30;;;3.35;;
52734;SDS011;38631;47.572;10.704;2023-02-24T09:11:52;12.35;;;3.65;;
52734;SDS011;38631;47.572;10.704;2023-02-24T09:14:26;7.70;;;3.20;;
52734;SDS011;38631;47.572;10.704;2023-02-24T09:16:54;10.40;;;3.05;;
52734;SDS011;38631;47.572;10.704;2023-02-24T09:19:27;9.77;;;3.30;;
52734;SDS011;38631;47.572;10.704;2023-02-24T09:22:25;6.90;;;3.03;;
52734;SDS011;38631;47.572;10.704;2023-02-24T09:25:00;7.18;;;3.17;;
52734;SDS011;38631;47.572;10.704;2023-02-24T09:27:54;8.27;;;2.80;;
52734;SDS011;38631;47.572;10.704;2023-02-24T09:30:32;6.57;;;3.08;;
52734;SDS011;38631;47.572;10.704;2023-02-24T09:33:09;10.63;;;4.47;;
52734;SDS011;38631;47.572;10.704;2023-02-24T09:38:27;9.23;;;3.13;;
52734;SDS011;38631;47.572;10.704;2023-02-24T09:41:22;10.35;;;3.30;;
52734;SDS011;38631;47.572;10.704;2023-02-24T09:43:58;11.35;;;3.67;;
52734;SDS011;38631;47.572;10.704;2023-02-24T09:48:54;5.05;;;2.75;;
52734;SDS011;38631;47.572;10.704;2023-02-24T09:51:30;9.07;;;3.10;;
52734;SDS011;38631;47.572;10.704;2023-02-24T09:54:15;9.98;;;2.83;;
52734;SDS011;38631;47.572;10.704;2023-02-24T09:56:50;6.97;;;2.92;;
52734;SDS011;38631;47.572;10.704;2023-02-24T09:59:35;6.85;;;2.55;;
52734;SDS011;38631;47.572;10.704;2023-02-24T10:02:45;12.25;;;2.90;;
52734;SDS011;38631;47.572;10.704;2023-02-24T10:08:15;7.93;;;3.08;;
52734;SDS011;38631;47.572;10.704;2023-02-24T10:10:49;9.13;;;3.15;;
52734;SDS011;38631;47.572;10.704;2023-02-24T10:13:31;8.40;;;3.10;;
52734;SDS011;38631;47.572;10.704;2023-02-24T10:16:00;10.30;;;2.85;;
52734;SDS011;38631;47.572;10.704;2023-02-24T10:21:59;15.53;;;3.27;;
52734;SDS011;38631;47.572;10.704;2023-02-24T10:24:46;7.97;;;3.10;;
52734;SDS011;38631;47.572;10.704;2023-02-24T10:27:26;11.32;;;3.78;;
52734;SDS011;38631;47.572;10.704;2023-02-24T10:32:52;9.15;;;3.17;;
52734;SDS011;38631;47.572;10.704;2023-02-24T10:35:19;9.18;;;3.58;;
52734;SDS011;38631;47.572;10.704;2023-02-24T10:37:49;15.45;;;3.45;;
52734;SDS011;38631;47.572;10.704;2023-02-24T10:40:16;7.57;;;2.90;;
52734;SDS011;38631;47.572;10.704;2023-02-24T10:42:50;10.27;;;2.97;;
52734;SDS011;38631;47.572;10.704;2023-02-24T10:45:28;10.05;;;2.88;;
52734;SDS011;38631;47.572;10.704;2023-02-24T10:47:56;9.63;;;2.80;;
52734;SDS011;38631;47.572;10.704;2023-02-24T10:50:33;14.02;;;3.83;;
52734;SDS011;38631;47.572;10.704;2023-02-24T10:53:13;17.35;;;3.30;;
52734;SDS011;38631;47.572;10.704;2023-02-24T10:55:54;9.75;;;4.03;;
52734;SDS011;38631;47.572;10.704;2023-02-24T10:58:40;10.00;;;4.18;;
52734;SDS011;38631;47.572;10.704;2023-02-24T11:01:25;6.82;;;2.80;;
52734;SDS011;38631;47.572;10.704;2023-02-24T11:04:15;7.82;;;3.22;;
52734;SDS011;38631;47.572;10.704;2023-02-24T11:07:09;7.88;;;3.03;;
52734;SDS011;38631;47.572;10.704;2023-02-24T11:09:37;11.65;;;3.92;;
52734;SDS011;38631;47.572;10.704;2023-02-24T11:12:20;9.90;;;3.03;;
52734;SDS011;38631;47.572;10.704;2023-02-24T11:15:30;10.05;;;3.60;;
52734;SDS011;38631;47.572;10.704;2023-02-24T11:18:20;8.73;;;3.30;;
52734;SDS011;38631;47.572;10.704;2023-02-24T11:20:53;6.97;;;3.53;;
52734;SDS011;38631;47.572;10.704;2023-02-24T11:23:27;7.85;;;2.95;;
52734;SDS011;38631;47.572;10.704;2023-02-24T11:25:59;11.93;;;3.35;;
52734;SDS011;38631;47.572;10.704;2023-02-24T11:34:05;6.00;;;2.22;;
52734;SDS011;38631;47.572;10.704;2023-02-24T11:36:37;25.55;;;4.10;;
52734;SDS011;38631;47.572;10.704;2023-02-24T11:39:13;7.97;;;2.88;;
52734;SDS011;38631;47.572;10.704;2023-02-24T11:41:47;10.57;;;2.83;;
52734;SDS011;38631;47.572;10.704;2023-02-24T11:44:19;10.65;;;2.63;;
52734;SDS011;38631;47.572;10.704;2023-02-24T11:46:56;9.13;;;3.03;;
52734;SDS011;38631;47.572;10.704;2023-02-24T11:49:28;11.13;;;2.75;;
52734;SDS011;38631;47.572;10.704;2023-02-24T11:52:00;13.65;;;2.78;;
52734;SDS011;38631;47.572;10.704;2023-02-24T11:54:29;8.63;;;2.72;;
52734;SDS011;38631;47.572;10.704;2023-02-24T11:57:02;10.43;;;3.13;;
52734;SDS011;38631;47.572;10.704;2023-02-24T11:59:34;8.25;;;2.70;;
52734;SDS011;38631;47.572;10.704;2023-02-24T12:02:13;8.48;;;2.55;;
52734;SDS011;38631;47.572;10.704;2023-02-24T12:07:31;9.75;;;2.88;;
52734;SDS011;38631;47.572;10.704;2023-02-24T12:10:06;9.30;;;3.53;;
52734;SDS011;38631;47.572;10.704;2023-02-24T12:12:38;8.85;;;3.40;;
52734;SDS011;38631;47.572;10.704;2023-02-24T12:15:09;8.23;;;3.30;;
52734;SDS011;38631;47.572;10.704;2023-02-24T12:17:47;11.55;;;4.15;;
52734;SDS011;38631;47.572;10.704;2023-02-24T12:22:55;6.72;;;2.88;;
52734;SDS011;38631;47.572;10.704;2023-02-24T12:25:29;7.95;;;3.00;;
52734;SDS011;38631;47.572;10.704;2023-02-24T12:33:35;8.82;;;3.78;;
52734;SDS011;38631;47.572;10.704;2023-02-24T12:41:36;8.40;;;3.75;;
52734;SDS011;38631;47.572;10.704;2023-02-24T12:44:25;8.80;;;3.63;;
52734;SDS011;38631;47.572;10.704;2023-02-24T12:47:09;9.40;;;3.35;;
52734;SDS011;38631;47.572;10.704;2023-02-24T12:52:30;11.98;;;4.07;;
52734;SDS011;38631;47.572;10.704;2023-02-24T12:55:17;10.63;;;3.97;;
52734;SDS011;38631;47.572;10.704;2023-02-24T13:01:23;7.53;;;3.35;;
52734;SDS011;38631;47.572;10.704;2023-02-24T13:03:34;10.65;;;3.10;;
52734;SDS011;38631;47.572;10.704;2023-02-24T13:08:48;9.48;;;4.13;;
52734;SDS011;38631;47.572;10.704;2023-02-24T13:11:36;11.95;;;3.80;;
52734;SDS011;38631;47.572;10.704;2023-02-24T13:16:38;11.27;;;4.80;;
52734;SDS011;38631;47.572;10.704;2023-02-24T13:19:16;9.43;;;3.78;;
52734;SDS011;38631;47.572;10.704;2023-02-24T13:21:42;9.55;;;4.22;;
52734;SDS011;38631;47.572;10.704;2023-02-24T13:24:19;9.48;;;4.93;;
52734;SDS011;38631;47.572;10.704;2023-02-24T13:26:46;15.27;;;5.35;;
52734;SDS011;38631;47.572;10.704;2023-02-24T13:29:12;13.05;;;4.07;;
52734;SDS011;38631;47.572;10.704;2023-02-24T13:31:49;13.10;;;4.45;;
52734;SDS011;38631;47.572;10.704;2023-02-24T13:36:50;15.13;;;4.43;;
52734;SDS011;38631;47.572;10.704;2023-02-24T13:39:35;13.70;;;4.07;;
52734;SDS011;38631;47.572;10.704;2023-02-24T13:42:27;14.00;;;5.57;;
52734;SDS011;38631;47.572;10.704;2023-02-24T13:45:56;10.57;;;3.83;;
52734;SDS011;38631;47.572;10.704;2023-02-24T14:01:58;17.17;;;5.47;;
52734;SDS011;38631;47.572;10.704;2023-02-24T14:04:30;15.27;;;4.55;;
52734;SDS011;38631;47.572;10.704;2023-02-24T14:09:25;16.58;;;5.60;;
52734;SDS011;38631;47.572;10.704;2023-02-24T14:12:00;10.10;;;3.55;;
52734;SDS011;38631;47.572;10.704;2023-02-24T14:14:31;18.65;;;7.05;;
52734;SDS011;38631;47.572;10.704;2023-02-24T14:16:56;15.85;;;4.72;;
52734;SDS011;38631;47.572;10.704;2023-02-24T14:19:23;15.82;;;5.43;;
52734;SDS011;38631;47.572;10.704;2023-02-24T14:21:53;15.82;;;4.55;;
52734;SDS011;38631;47.572;10.704;2023-02-24T14:24:21;14.95;;;3.85;;
52734;SDS011;38631;47.572;10.704;2023-02-24T14:26:51;16.20;;;5.15;;
52734;SDS011;38631;47.572;10.704;2023-02-24T14:29:19;16.42;;;4.78;;
52734;SDS011;38631;47.572;10.704;2023-02-24T14:31:51;17.48;;;5.20;;
52734;SDS011;38631;47.572;10.704;2023-02-24T14:34:22;18.55;;;4.60;;
52734;SDS011;38631;47.572;10.704;2023-02-24T14:36:50;14.73;;;5.13;;
52734;SDS011;38631;47.572;10.704;2023-02-24T14:39:24;17.27;;;3.97;;
52734;SDS011;38631;47.572;10.704;2023-02-24T14:44:39;16.25;;;4.40;;
52734;SDS011;38631;47.572;10.704;2023-02-24T14:47:24;21.88;;;4.88;;
52734;SDS011;38631;47.572;10.704;2023-02-24T14:49:52;23.50;;;5.53;;
52734;SDS011;38631;47.572;10.704;2023-02-24T14:52:38;20.65;;;4.47;;
52734;SDS011;38631;47.572;10.704;2023-02-24T15:00:30;17.48;;;5.03;;
52734;SDS011;38631;47.572;10.704;2023-02-24T15:03:22;17.35;;;4.20;;
52734;SDS011;38631;47.572;10.704;2023-02-24T15:05:57;16.70;;;4.72;;
52734;SDS011;38631;47.572;10.704;2023-02-24T15:10:55;21.13;;;5.13;;
52734;SDS011;38631;47.572;10.704;2023-02-24T15:13:44;17.85;;;4.55;;
52734;SDS011;38631;47.572;10.704;2023-02-24T15:16:19;25.85;;;5.40;;
52734;SDS011;38631;47.572;10.704;2023-02-24T15:18:49;21.27;;;4.75;;
52734;SDS011;38631;47.572;10.704;2023-02-24T15:21:27;15.93;;;4.65;;
52734;SDS011;38631;47.572;10.704;2023-02-24T15:24:12;20.13;;;4.68;;
52734;SDS011;38631;47.572;10.704;2023-02-24T15:26:49;26.92;;;4.85;;
52734;SDS011;38631;47.572;10.704;2023-02-24T15:29:21;18.08;;;4.93;;
52734;SDS011;38631;47.572;10.704;2023-02-24T15:31:50;15.52;;;5.13;;
52734;SDS011;38631;47.572;10.704;2023-02-24T15:34:34;22.88;;;5.57;;
52734;SDS011;38631;47.572;10.704;2023-02-24T15:37:01;16.05;;;4.70;;
52734;SDS011;38631;47.572;10.704;2023-02-24T15:39:40;15.75;;;5.25;;
52734;SDS011;38631;47.572;10.704;2023-02-24T15:44:53;17.30;;;4.55;;
52734;SDS011;38631;47.572;10.704;2023-02-24T15:47:24;21.13;;;5.07;;
52734;SDS011;38631;47.572;10.704;2023-02-24T15:49:51;22.15;;;4.68;;
52734;SDS011;38631;47.572;10.704;2023-02-24T15:52:19;24.35;;;5.80;;
52734;SDS011;38631;47.572;10.704;2023-02-24T15:54:47;19.20;;;4.63;;
52734;SDS011;38631;47.572;10.704;2023-02-24T15:57:14;21.75;;;4.55;;
52734;SDS011;38631;47.572;10.704;2023-02-24T15:59:41;18.25;;;5.43;;
52734;SDS011;38631;47.572;10.704;2023-02-24T16:02:14;21.65;;;4.22;;
52734;SDS011;38631;47.572;10.704;2023-02-24T16:04:42;15.32;;;3.80;;
52734;SDS011;38631;47.572;10.704;2023-02-24T16:07:09;19.75;;;4.28;;
52734;SDS011;38631;47.572;10.704;2023-02-24T16:09:40;23.38;;;5.22;;
52734;SDS011;38631;47.572;10.704;2023-02-24T16:12:09;20.02;;;4.97;;
52734;SDS011;38631;47.572;10.704;2023-02-24T16:14:39;17.30;;;4.85;;
52734;SDS011;38631;47.572;10.704;2023-02-24T16:17:07;17.83;;;6.03;;
52734;SDS011;38631;47.572;10.704;2023-02-24T16:19:52;24.52;;;5.30;;
52734;SDS011;38631;47.572;10.704;2023-02-24T16:22:19;17.77;;;4.68;;
52734;SDS011;38631;47.572;10.704;2023-02-24T16:24:45;20.13;;;5.18;;
52734;SDS011;38631;47.572;10.704;2023-02-24T16:27:14;15.90;;;4.85;;
52734;SDS011;38631;47.572;10.704;2023-02-24T16:29:42;17.88;;;5.32;;
52734;SDS011;38631;47.572;10.704;2023-02-24T16:32:11;23.38;;;6.20;;
52734;SDS011;38631;47.572;10.704;2023-02-24T16:34:37;20.42;;;6.00;;
52734;SDS011;38631;47.572;10.704;2023-02-24T16:37:04;26.45;;;7.53;;
52734;SDS011;38631;47.572;10.704;2023-02-24T16:39:40;21.08;;;7.47;;
52734;SDS011;38631;47.572;10.704;2023-02-24T16:42:05;20.17;;;6.68;;
52734;SDS011;38631;47.572;10.704;2023-02-24T16:44:32;24.15;;;8.02;;
52734;SDS011;38631;47.572;10.704;2023-02-24T16:46:57;18.45;;;6.20;;
52734;SDS011;38631;47.572;10.704;2023-02-24T16:49:24;24.63;;;6.43;;